createdAt,value
2022-08-28T00:01:39.622Z,19.20
2022-08-28T00:04:06.214Z,19.30
2022-08-28T00:06:32.826Z,19.10
2022-08-28T00:08:59.380Z,18.90
2022-08-28T00:11:26.089Z,18.90
2022-08-28T00:13:52.671Z,18.80
2022-08-28T00:16:19.664Z,19.00
2022-08-28T00:18:47.071Z,19.00
2022-08-28T00:21:14.242Z,19.20
2022-08-28T00:23:42.964Z,19.40
2022-08-28T00:26:10.799Z,19.30
2022-08-28T00:28:37.567Z,19.20
2022-08-28T00:31:05.295Z,19.30
2022-08-28T00:33:33.672Z,19.20
2022-08-28T00:36:01.224Z,18.90
2022-08-28T00:38:28.333Z,19.00
2022-08-28T00:40:57.309Z,19.00
2022-08-28T00:43:45.580Z,18.90
2022-08-28T00:46:30.207Z,18.70
2022-08-28T00:48:56.772Z,19.00
2022-08-28T00:51:42.290Z,18.80
2022-08-28T00:54:09.283Z,18.90
2022-08-28T00:56:37.790Z,19.00
2022-08-28T00:59:07.578Z,18.90
2022-08-28T01:01:34.361Z,19.00
2022-08-28T01:04:02.220Z,19.20
2022-08-28T01:06:28.959Z,19.30
2022-08-28T01:08:55.942Z,19.10
2022-08-28T01:11:25.783Z,19.10
2022-08-28T01:13:54.378Z,19.10
2022-08-28T01:16:22.853Z,19.20
2022-08-28T01:18:55.307Z,18.80
2022-08-28T01:21:26.934Z,18.80
2022-08-28T01:23:59.161Z,18.70
2022-08-28T01:26:28.123Z,18.50
2022-08-28T01:28:55.555Z,18.60
2022-08-28T01:31:22.321Z,18.50
2022-08-28T01:33:49.013Z,18.50
2022-08-28T01:36:15.872Z,18.80
2022-08-28T01:38:43.068Z,18.80
2022-08-28T01:41:11.157Z,18.90
2022-08-28T01:43:39.970Z,19.00
2022-08-28T01:46:07.030Z,19.10
2022-08-28T01:48:36.496Z,18.90
2022-08-28T01:51:03.983Z,18.70
2022-08-28T01:53:33.039Z,18.70
2022-08-28T01:56:00.732Z,18.50
2022-08-28T01:58:28.021Z,18.70
2022-08-28T02:00:55.884Z,18.80
2022-08-28T02:03:23.339Z,19.00
2022-08-28T02:05:49.942Z,18.80
2022-08-28T02:08:16.559Z,18.70
2022-08-28T02:10:43.686Z,18.60
2022-08-28T02:13:11.639Z,18.50
2022-08-28T02:15:40.367Z,18.10
2022-08-28T02:18:07.350Z,18.40
2022-08-28T02:20:33.989Z,18.40
2022-08-28T02:59:13.392Z,18.40
2022-08-28T03:01:40.135Z,18.50
2022-08-28T03:04:07.314Z,18.40
2022-08-28T03:06:34.083Z,18.10
2022-08-28T03:09:00.862Z,18.10
2022-08-28T03:11:27.674Z,18.30
2022-08-28T03:13:55.416Z,18.40
2022-08-28T03:16:22.108Z,18.60
2022-08-28T03:18:48.802Z,18.30
2022-08-28T03:21:15.555Z,18.20
2022-08-28T03:23:42.303Z,18.20
2022-08-28T03:26:13.831Z,18.10
2022-08-28T03:28:43.992Z,18.00
2022-08-28T03:31:13.946Z,18.40
2022-08-28T03:33:42.828Z,18.50
2022-08-28T03:36:16.648Z,18.70
2022-08-28T03:38:43.591Z,18.80
2022-08-28T03:41:15.704Z,18.80
2022-08-28T03:43:43.234Z,18.70
2022-08-28T03:46:14.211Z,18.90
2022-08-28T03:48:43.494Z,18.70
2022-08-28T03:51:15.102Z,18.90
2022-08-28T03:53:42.903Z,18.60
2022-08-28T03:56:16.915Z,18.90
2022-08-28T03:58:43.657Z,19.00
2022-08-28T04:01:10.582Z,19.10
2022-08-28T04:03:37.380Z,18.70
2022-08-28T04:06:04.330Z,19.00
2022-08-28T04:08:31.173Z,19.00
2022-08-28T04:11:00.807Z,19.20
2022-08-28T04:13:27.908Z,19.30
2022-08-28T04:16:10.653Z,19.20
2022-08-28T04:18:40.221Z,19.10
2022-08-28T04:21:16.767Z,18.90
2022-08-28T04:23:44.969Z,19.10
2022-08-28T04:26:17.706Z,19.10
2022-08-28T04:28:44.607Z,19.10
2022-08-28T04:31:11.779Z,19.00
2022-08-28T04:33:38.922Z,19.00
2022-08-28T04:36:08.676Z,19.00
2022-08-28T04:38:36.822Z,18.90
2022-08-28T04:41:07.546Z,18.80
2022-08-28T04:43:34.878Z,18.80
2022-08-28T04:46:07.068Z,18.50
2022-08-28T04:48:34.840Z,18.40
2022-08-28T04:51:01.801Z,18.30
2022-08-28T04:53:29.403Z,18.30
2022-08-28T04:55:58.898Z,18.70
2022-08-28T04:58:26.146Z,18.90
2022-08-28T05:00:54.715Z,18.80
2022-08-28T05:03:22.534Z,19.00
2022-08-28T05:05:54.092Z,19.00
2022-08-28T05:08:24.550Z,18.60
2022-08-28T05:10:51.235Z,18.70
2022-08-28T05:13:18.543Z,18.80
2022-08-28T05:15:48.094Z,18.50
2022-08-28T05:18:17.029Z,18.40
2022-08-28T05:20:46.031Z,18.30
2022-08-28T05:23:14.818Z,18.40
2022-08-28T05:25:44.561Z,18.80
2022-08-28T05:28:12.484Z,19.20
2022-08-28T05:30:40.779Z,18.90
2022-08-28T05:33:08.370Z,18.60
2022-08-28T05:35:38.278Z,18.50
2022-08-28T05:38:06.151Z,18.60
2022-08-28T05:40:33.341Z,18.50
2022-08-28T05:43:00.068Z,18.50
2022-08-28T05:45:26.886Z,18.70
2022-08-28T05:47:53.906Z,18.80
2022-08-28T05:50:20.601Z,18.80
2022-08-28T05:52:47.489Z,19.10
2022-08-28T05:55:14.279Z,18.90
2022-08-28T05:57:41.502Z,19.00
2022-08-28T06:00:13.665Z,18.90
2022-08-28T06:02:41.946Z,18.90
2022-08-28T06:05:09.463Z,19.00
2022-08-28T06:07:41.087Z,19.00
2022-08-28T06:10:10.665Z,18.80
2022-08-28T06:12:37.870Z,18.90
2022-08-28T06:15:05.953Z,19.20
2022-08-28T06:17:32.622Z,18.90
2022-08-28T06:19:59.321Z,19.00
2022-08-28T06:22:26.109Z,18.90
2022-08-28T06:24:53.812Z,18.90
2022-08-28T06:27:20.628Z,18.90
2022-08-28T06:29:47.418Z,18.90
2022-08-28T06:32:14.161Z,18.80
2022-08-28T06:34:40.966Z,19.00
2022-08-28T06:37:09.634Z,19.00
2022-08-28T06:39:36.439Z,19.00
2022-08-28T06:42:03.276Z,18.90
2022-08-28T06:44:32.297Z,18.80
2022-08-28T06:46:59.876Z,19.40
2022-08-28T06:49:27.541Z,19.50
2022-08-28T06:51:56.187Z,19.30
2022-08-28T06:54:23.674Z,19.50
2022-08-28T06:56:52.026Z,19.30
2022-08-28T06:59:18.834Z,19.80
2022-08-28T07:01:45.615Z,19.70
2022-08-28T07:04:14.332Z,19.70
2022-08-28T07:06:46.877Z,20.00
2022-08-28T07:09:13.947Z,19.90
2022-08-28T07:11:43.387Z,20.00
2022-08-28T07:14:10.523Z,19.90
2022-08-28T07:16:39.293Z,19.70
2022-08-28T07:19:11.238Z,19.80
2022-08-28T07:21:41.584Z,20.00
2022-08-28T07:24:10.466Z,19.50
2022-08-28T07:26:37.913Z,19.40
2022-08-28T07:29:11.113Z,19.70
2022-08-28T07:31:42.221Z,20.00
2022-08-28T07:34:12.100Z,20.00
2022-08-28T07:36:39.911Z,20.00
2022-08-28T07:39:08.289Z,20.10
2022-08-28T07:41:39.127Z,20.00
2022-08-28T07:44:26.514Z,19.70
2022-08-28T07:46:59.127Z,20.00
2022-08-28T07:49:26.366Z,19.90
2022-08-28T07:51:53.979Z,19.90
2022-08-28T07:54:22.090Z,19.80
2022-08-28T07:56:48.890Z,19.90
2022-08-28T07:59:17.434Z,19.80
2022-08-28T08:01:47.840Z,19.80
2022-08-28T08:04:18.436Z,19.60
2022-08-28T08:06:46.774Z,19.80
2022-08-28T08:09:16.140Z,19.80
2022-08-28T08:11:42.995Z,19.90
2022-08-28T08:14:11.024Z,20.20
2022-08-28T08:16:42.232Z,20.10
2022-08-28T08:19:13.662Z,20.20
2022-08-28T08:21:42.635Z,20.10
2022-08-28T08:24:09.771Z,20.30
2022-08-28T08:26:36.530Z,20.60
2022-08-28T08:29:03.552Z,20.50
2022-08-28T08:31:32.715Z,20.40
2022-08-28T08:34:02.062Z,20.50
2022-08-28T08:36:29.831Z,20.70
2022-08-28T08:38:59.889Z,20.60
2022-08-28T08:41:39.231Z,20.90
2022-08-28T08:44:33.636Z,20.90
2022-08-28T08:47:14.946Z,20.80
2022-08-28T08:49:47.838Z,20.70
2022-08-28T08:52:30.676Z,20.80
2022-08-28T08:55:15.127Z,20.60
2022-08-28T08:57:44.057Z,20.70
2022-08-28T09:00:16.102Z,20.60
2022-08-28T09:02:57.031Z,20.60
2022-08-28T09:05:45.510Z,20.50
2022-08-28T09:08:19.984Z,20.30
2022-08-28T09:10:54.958Z,20.40
2022-08-28T09:13:50.758Z,20.70
2022-08-28T09:16:39.747Z,20.80
2022-08-28T09:19:09.432Z,21.00
2022-08-28T09:21:41.054Z,20.90
2022-08-28T09:24:32.109Z,20.90
2022-08-28T09:27:08.992Z,21.00
2022-08-28T09:29:43.233Z,20.90
2022-08-28T09:32:21.959Z,21.00
2022-08-28T09:35:28.978Z,20.80
2022-08-28T09:37:56.970Z,21.10
2022-08-28T09:40:47.475Z,20.90
2022-08-28T09:43:28.428Z,20.90
2022-08-28T09:46:16.401Z,20.90
2022-08-28T09:48:45.222Z,21.00
2022-08-28T09:51:27.477Z,21.10
2022-08-28T09:53:57.139Z,21.50
2022-08-28T09:56:34.249Z,21.60
2022-08-28T09:59:11.868Z,21.70
2022-08-28T10:01:44.779Z,21.60
2022-08-28T10:04:37.415Z,21.60
2022-08-28T10:07:12.360Z,21.80
2022-08-28T10:10:19.460Z,21.90
2022-08-28T10:12:59.291Z,22.10
2022-08-28T10:15:43.532Z,22.10
2022-08-28T10:18:22.682Z,22.10
2022-08-28T10:20:53.010Z,22.00
2022-08-28T10:23:52.699Z,21.90
2022-08-28T10:26:48.837Z,22.10
2022-08-28T10:29:27.081Z,22.10
2022-08-28T10:32:16.371Z,22.10
2022-08-28T10:35:15.343Z,22.20
2022-08-28T10:38:08.343Z,22.20
2022-08-28T10:40:51.930Z,22.30
2022-08-28T10:43:30.008Z,22.40
2022-08-28T10:46:04.867Z,22.50
2022-08-28T10:48:40.779Z,22.70
2022-08-28T10:51:13.750Z,22.90
2022-08-28T10:54:26.594Z,23.00
2022-08-28T10:57:14.066Z,23.20
2022-08-28T10:59:42.827Z,23.30
2022-08-28T11:02:13.512Z,23.20
2022-08-28T11:04:40.585Z,23.20
2022-08-28T11:07:11.304Z,23.60
2022-08-28T11:09:44.036Z,23.50
2022-08-28T11:12:16.955Z,23.40
2022-08-28T11:14:48.402Z,23.30
2022-08-28T11:17:25.226Z,23.00
2022-08-28T11:20:06.508Z,22.90
2022-08-28T11:22:55.132Z,22.90
2022-08-28T11:25:42.975Z,23.40
2022-08-28T11:28:24.924Z,23.80
2022-08-28T11:31:00.960Z,23.80
2022-08-28T11:33:50.227Z,23.50
2022-08-28T11:36:19.701Z,23.40
2022-08-28T11:38:52.916Z,23.30
2022-08-28T11:41:22.766Z,23.20
2022-08-28T11:44:13.626Z,23.30
2022-08-28T11:46:44.103Z,23.70
2022-08-28T11:49:30.109Z,23.70
2022-08-28T11:52:11.233Z,23.50
2022-08-28T11:55:22.736Z,23.60
2022-08-28T11:57:55.370Z,24.00
2022-08-28T12:00:59.831Z,24.10
2022-08-28T12:03:36.574Z,24.70
2022-08-28T12:06:05.246Z,25.00
2022-08-28T12:08:58.080Z,25.00
2022-08-28T12:11:39.947Z,25.30
2022-08-28T12:14:09.086Z,25.60
2022-08-28T12:17:00.775Z,26.20
2022-08-28T12:19:42.986Z,26.30
2022-08-28T12:22:26.547Z,26.30
2022-08-28T12:25:06.424Z,26.20
2022-08-28T12:27:38.308Z,26.40
2022-08-28T12:30:05.755Z,26.20
2022-08-28T12:32:55.939Z,26.60
2022-08-28T12:35:30.161Z,26.40
2022-08-28T12:37:57.254Z,26.50
2022-08-28T12:40:27.611Z,26.70
2022-08-28T12:43:15.204Z,26.20
2022-08-28T12:46:03.941Z,26.50
2022-08-28T12:48:33.406Z,26.90
2022-08-28T12:51:14.603Z,26.00
2022-08-28T12:53:47.639Z,25.50
2022-08-28T12:56:17.689Z,25.90
2022-08-28T12:58:45.816Z,27.10
2022-08-28T13:01:33.760Z,27.10
2022-08-28T13:04:17.722Z,26.70
2022-08-28T13:06:44.602Z,26.90
2022-08-28T13:09:20.892Z,26.10
2022-08-28T13:11:50.591Z,25.30
2022-08-28T13:14:43.929Z,25.00
2022-08-28T13:17:13.603Z,24.70
2022-08-28T13:19:40.992Z,25.90
2022-08-28T13:22:39.575Z,26.80
2022-08-28T13:25:08.006Z,27.80
2022-08-28T13:27:35.511Z,28.20
2022-08-28T13:30:20.932Z,26.90
2022-08-28T13:33:01.303Z,27.20
2022-08-28T13:35:34.091Z,28.40
2022-08-28T13:38:12.362Z,28.80
2022-08-28T13:41:00.618Z,28.70
2022-08-28T13:43:41.795Z,28.70
2022-08-28T13:46:08.534Z,28.80
2022-08-28T13:48:35.242Z,29.00
2022-08-28T13:51:10.670Z,29.30
2022-08-28T13:53:38.786Z,29.60
2022-08-28T13:56:06.219Z,29.70
2022-08-28T13:58:33.132Z,29.30
2022-08-28T14:01:00.536Z,29.50
2022-08-28T14:03:37.476Z,29.70
2022-08-28T14:06:12.237Z,29.10
2022-08-28T14:08:40.796Z,28.80
2022-08-28T14:11:08.035Z,29.60
2022-08-28T14:13:34.763Z,30.10
2022-08-28T14:16:05.324Z,30.10
2022-08-28T14:18:32.143Z,29.80
2022-08-28T14:20:59.158Z,30.00
2022-08-28T14:23:26.179Z,29.50
2022-08-28T14:25:52.860Z,29.00
2022-08-28T14:28:19.790Z,29.70
2022-08-28T14:30:48.799Z,29.90
2022-08-28T14:33:18.648Z,30.60
2022-08-28T14:35:46.371Z,30.60
2022-08-28T14:38:13.416Z,30.80
2022-08-28T14:40:42.683Z,31.00
2022-08-28T14:43:11.056Z,30.80
2022-08-28T14:45:49.651Z,30.90
2022-08-28T14:48:18.486Z,29.30
2022-08-28T14:50:48.006Z,28.20
2022-08-28T14:53:15.742Z,27.40
2022-08-28T14:55:51.616Z,28.40
2022-08-28T14:58:19.491Z,29.60
2022-08-28T15:00:49.402Z,30.40
2022-08-28T15:03:18.460Z,30.00
2022-08-28T15:05:46.060Z,29.30
2022-08-28T15:08:15.492Z,28.30
2022-08-28T15:10:43.405Z,27.40
2022-08-28T15:13:10.894Z,26.80
2022-08-28T15:15:39.442Z,26.30
2022-08-28T15:18:07.290Z,27.40
2022-08-28T15:20:43.115Z,28.50
2022-08-28T15:23:10.506Z,29.50
2022-08-28T15:25:37.593Z,29.70
2022-08-28T15:28:05.051Z,30.20
2022-08-28T15:30:32.066Z,30.70
2022-08-28T15:32:58.752Z,30.50
2022-08-28T15:35:25.569Z,30.70
2022-08-28T15:37:53.626Z,28.70
2022-08-28T15:40:39.810Z,27.20
2022-08-28T15:43:06.853Z,27.30
2022-08-28T15:45:40.016Z,26.60
2022-08-28T15:48:08.214Z,26.20
2022-08-28T15:50:35.445Z,27.30
2022-08-28T15:53:04.228Z,28.10
2022-08-28T15:55:33.895Z,28.50
2022-08-28T15:58:08.821Z,28.70
2022-08-28T16:00:41.310Z,28.80
2022-08-28T16:03:08.144Z,28.70
2022-08-28T16:05:40.704Z,29.10
2022-08-28T16:08:09.207Z,29.00
2022-08-28T16:10:36.147Z,27.60
2022-08-28T16:13:04.550Z,26.90
2022-08-28T16:15:31.386Z,26.20
2022-08-28T16:17:58.292Z,25.80
2022-08-28T16:20:25.265Z,25.60
2022-08-28T16:22:52.918Z,25.30
2022-08-28T16:25:20.635Z,25.20
2022-08-28T16:27:47.311Z,25.10
2022-08-28T16:30:15.623Z,25.10
2022-08-28T16:32:46.570Z,25.10
2022-08-28T16:35:14.784Z,25.00
2022-08-28T16:37:41.991Z,25.00
2022-08-28T16:40:10.451Z,25.10
2022-08-28T16:42:37.236Z,25.10
2022-08-28T16:45:05.430Z,24.90
2022-08-28T16:47:34.031Z,24.90
2022-08-28T16:50:02.698Z,24.80
2022-08-28T16:52:29.431Z,24.80
2022-08-28T16:54:56.116Z,24.70
2022-08-28T16:57:23.718Z,24.60
2022-08-28T16:59:53.045Z,24.50
2022-08-28T17:02:24.986Z,24.50
2022-08-28T17:04:54.725Z,24.40
2022-08-28T17:07:21.892Z,24.40
2022-08-28T17:09:48.616Z,24.40
2022-08-28T17:12:15.770Z,24.40
2022-08-28T17:14:42.426Z,24.30
2022-08-28T17:17:09.131Z,24.30
2022-08-28T17:19:38.092Z,24.20
2022-08-28T17:22:23.426Z,24.20
2022-08-28T17:24:53.999Z,24.10
2022-08-28T17:27:22.308Z,24.10
2022-08-28T17:29:50.306Z,24.10
2022-08-28T17:32:17.493Z,24.10
2022-08-28T17:34:44.505Z,24.00
2022-08-28T17:37:11.387Z,23.90
2022-08-28T17:39:38.401Z,23.90
2022-08-28T17:42:06.006Z,23.80
2022-08-28T17:44:32.966Z,23.80
2022-08-28T17:47:00.805Z,23.80
2022-08-28T17:49:27.513Z,23.80
2022-08-28T17:51:54.191Z,23.60
2022-08-28T17:54:24.260Z,23.60
2022-08-28T17:56:53.007Z,23.50
2022-08-28T17:59:20.699Z,23.30
2022-08-28T18:01:48.452Z,23.20
2022-08-28T18:04:23.012Z,23.10
2022-08-28T18:06:54.054Z,23.00
2022-08-28T18:09:21.274Z,22.90
2022-08-28T18:11:48.131Z,22.90
2022-08-28T18:14:14.891Z,22.90
2022-08-28T18:16:41.633Z,22.80
2022-08-28T18:19:11.233Z,22.80
2022-08-28T18:21:38.766Z,22.70
2022-08-28T18:24:06.350Z,22.60
2022-08-28T18:26:33.026Z,22.60
2022-08-28T18:28:59.925Z,22.50
2022-08-28T18:31:26.831Z,22.60
2022-08-28T18:33:54.646Z,22.50
2022-08-28T18:36:23.118Z,22.40
2022-08-28T18:38:50.549Z,22.30
2022-08-28T18:41:19.475Z,22.20
2022-08-28T18:43:46.852Z,22.20
2022-08-28T18:46:14.334Z,22.10
2022-08-28T18:48:42.587Z,22.10
2022-08-28T18:51:11.505Z,22.00
2022-08-28T18:53:39.010Z,21.90
2022-08-28T18:56:09.204Z,21.90
2022-08-28T18:58:37.754Z,21.80
2022-08-28T19:01:04.923Z,21.70
2022-08-28T19:03:31.982Z,21.70
2022-08-28T19:05:58.795Z,21.60
2022-08-28T19:08:26.215Z,21.50
2022-08-28T19:10:54.068Z,21.60
2022-08-28T19:13:20.887Z,21.60
2022-08-28T19:15:52.575Z,21.50
2022-08-28T19:18:20.252Z,21.50
2022-08-28T19:20:47.403Z,21.50
2022-08-28T19:23:17.386Z,21.40
2022-08-28T19:25:44.912Z,21.40
2022-08-28T19:28:11.627Z,21.40
2022-08-28T19:30:38.410Z,21.30
2022-08-28T19:33:05.858Z,21.30
2022-08-28T19:35:33.830Z,21.20
2022-08-28T19:38:00.956Z,21.30
2022-08-28T19:40:27.913Z,21.30
2022-08-28T19:42:54.760Z,21.30
2022-08-28T19:45:21.533Z,21.30
2022-08-28T19:47:48.399Z,21.30
2022-08-28T19:50:15.608Z,21.10
2022-08-28T19:52:43.193Z,21.00
2022-08-28T19:55:18.330Z,21.00
2022-08-28T19:57:46.747Z,21.00
2022-08-28T20:00:15.249Z,21.00
2022-08-28T20:02:42.193Z,20.90
2022-08-28T20:05:09.813Z,20.80
2022-08-28T20:07:37.075Z,20.80
2022-08-28T20:10:05.683Z,20.80
2022-08-28T20:12:32.648Z,20.80
2022-08-28T20:15:03.230Z,20.80
2022-08-28T20:17:30.643Z,20.80
2022-08-28T20:20:02.466Z,20.70
2022-08-28T20:22:31.733Z,20.70
2022-08-28T20:24:59.380Z,20.60
2022-08-28T20:27:26.261Z,20.50
2022-08-28T20:29:54.150Z,20.60
2022-08-28T20:32:22.840Z,20.50
2022-08-28T20:34:49.646Z,20.40
2022-08-28T20:37:16.859Z,20.50
2022-08-28T20:39:43.556Z,20.40
2022-08-28T20:42:10.455Z,20.40
2022-08-28T20:44:37.243Z,20.40
2022-08-28T20:47:04.284Z,20.30
2022-08-28T20:49:31.079Z,20.30
2022-08-28T20:52:00.818Z,20.30
2022-08-28T20:54:38.138Z,20.30
2022-08-28T20:57:08.951Z,20.20
2022-08-28T20:59:40.328Z,20.20
2022-08-28T21:02:19.515Z,20.10
2022-08-28T21:04:47.525Z,20.00
2022-08-28T21:07:17.058Z,20.00
2022-08-28T21:10:05.847Z,20.00
2022-08-28T21:12:31.535Z,20.00
2022-08-28T21:14:58.557Z,20.00
2022-08-28T21:17:29.991Z,20.00
2022-08-28T21:20:10.609Z,20.00
2022-08-28T21:22:38.057Z,20.00
2022-08-28T21:25:07.588Z,20.00
2022-08-28T21:27:34.546Z,19.90
2022-08-28T21:30:02.238Z,19.90
2022-08-28T21:32:29.931Z,19.80
2022-08-28T21:34:56.759Z,19.80
2022-08-28T21:37:23.903Z,19.80
2022-08-28T21:39:50.686Z,19.80
2022-08-28T21:42:17.502Z,19.70
2022-08-28T21:44:46.094Z,19.70
2022-08-28T21:47:21.213Z,19.70
2022-08-28T21:49:49.438Z,19.80
2022-08-28T21:52:18.429Z,19.60
2022-08-28T21:54:45.443Z,19.60
2022-08-28T21:57:12.458Z,19.60
2022-08-28T21:59:39.378Z,19.60
2022-08-28T22:02:06.591Z,19.70
2022-08-28T22:04:33.674Z,19.60
2022-08-28T22:07:00.562Z,19.60
2022-08-28T22:09:27.523Z,19.60
2022-08-28T22:11:54.258Z,19.60
2022-08-28T22:14:21.036Z,19.50
2022-08-28T22:16:47.872Z,19.50
2022-08-28T22:19:14.631Z,19.30
2022-08-28T22:22:00.302Z,19.40
2022-08-28T22:24:27.064Z,19.30
2022-08-28T22:26:57.325Z,19.20
2022-08-28T22:29:24.694Z,19.20
2022-08-28T22:31:51.475Z,19.20
2022-08-28T22:34:18.216Z,19.10
2022-08-28T22:36:44.877Z,19.10
2022-08-28T22:39:11.542Z,19.10
2022-08-28T22:41:38.575Z,19.00
2022-08-28T22:44:07.230Z,19.10
2022-08-28T22:46:33.919Z,19.10
2022-08-28T22:49:01.797Z,19.00
2022-08-28T22:51:28.526Z,19.00
2022-08-28T22:53:55.866Z,19.00
2022-08-28T22:56:22.596Z,18.90
2022-08-28T22:58:49.295Z,18.90
2022-08-28T23:01:21.345Z,18.90
2022-08-28T23:03:50.389Z,18.80
2022-08-28T23:06:18.499Z,18.80
2022-08-28T23:08:45.186Z,18.70
2022-08-28T23:11:11.906Z,18.80
2022-08-28T23:13:39.653Z,18.70
2022-08-28T23:16:06.638Z,18.70
2022-08-28T23:18:51.691Z,18.70
2022-08-28T23:21:23.050Z,18.70
2022-08-28T23:23:50.467Z,18.70
2022-08-28T23:26:18.112Z,18.70
2022-08-28T23:28:44.906Z,18.60
2022-08-28T23:31:11.727Z,18.60
2022-08-28T23:33:38.470Z,18.60
2022-08-28T23:36:05.603Z,18.60
2022-08-28T23:38:34.671Z,18.50
2022-08-28T23:41:02.000Z,18.50
2022-08-28T23:43:29.691Z,18.50
2022-08-28T23:45:56.718Z,18.50
2022-08-28T23:48:24.805Z,18.40
2022-08-28T23:50:52.407Z,18.40
2022-08-28T23:53:20.218Z,18.50
2022-08-28T23:55:48.548Z,18.40
2022-08-28T23:58:15.836Z,18.40
